Time;durP1;ratioP1;P1;durP2;ratioP2;P2;SDS_P1;SDS_P2;PMS_P1;PMS_P2;Temp;Humidity;BMP_temperature;BMP_pressure;BME280_temperature;BME280_humidity;BME280_pressure;Samples;Min_cycle;Max_cycle;Signal;HPM_P1;HPM_P2
2023/05/01 05:51:45;;;;;;;3.47;2.45;;;;;;;;;;10455591;27;20426;-81
2023/05/01 05:56:46;;;;;;;;;;;;;;;;;;10475916;28;20021;-81
2023/05/01 06:01:47;;;;;;;4.35;2.78;;;;;;;;;;10487559;22;19920;-85
2023/05/01 06:06:48;;;;;;;4.72;2.95;;;;;;;;;;10496512;28;20101;-85
2023/05/01 06:11:49;;;;;;;5.32;3.63;;;;;;;;;;10506051;28;20031;-84
2023/05/01 06:16:50;;;;;;;;;;;;;;;;;;10540749;28;20028;-84
2023/05/01 06:21:51;;;;;;;3.92;2.80;;;;;;;;;;10522103;28;19965;-83
2023/05/01 06:26:52;;;;;;;6.40;3.17;;;;;;;;;;10521551;28;20024;-84
2023/05/01 06:31:53;;;;;;;6.65;3.55;;;;;;;;;;10539838;28;20101;-83
2023/05/01 06:36:59;;;;;;;4.47;2.50;;;;;;;;;;10520680;28;20066;-84
2023/05/01 06:42:02;;;;;;;3.22;2.05;;;;;;;;;;10520601;28;20016;-83
2023/05/01 06:47:03;;;;;;;2.85;1.83;;;;;;;;;;10521110;28;20481;-84
2023/05/01 06:52:09;;;;;;;3.88;2.38;;;;;;;;;;10522042;28;20035;-84
2023/05/01 06:57:10;;;;;;;2.63;2.08;;;;;;;;;;10520512;28;20024;-83
2023/05/01 07:02:12;;;;;;;3.72;2.40;;;;;;;;;;10498378;28;20040;-84
2023/05/01 07:07:13;;;;;;;5.18;2.40;;;;;;;;;;10510884;28;20092;-84
2023/05/01 07:12:14;;;;;;;2.78;2.25;;;;;;;;;;10492718;28;20035;-84
2023/05/01 07:17:16;;;;;;;4.45;2.88;;;;;;;;;;10495324;28;20025;-85
2023/05/01 07:22:18;;;;;;;4.00;2.88;;;;;;;;;;10513038;28;20099;-84
2023/05/01 07:27:20;;;;;;;3.85;2.67;;;;;;;;;;10496125;28;20028;-85
2023/05/01 07:32:21;;;;;;;2.58;2.20;;;;;;;;;;10496913;28;20029;-84
2023/05/01 07:37:27;;;;;;;4.00;2.60;;;;;;;;;;10496803;28;20051;-84
2023/05/01 07:42:28;;;;;;;4.95;2.85;;;;;;;;;;10496655;28;20385;-85
2023/05/01 07:47:29;;;;;;;4.75;2.70;;;;;;;;;;10497473;28;20127;-85
2023/05/01 07:52:35;;;;;;;4.57;2.70;;;;;;;;;;10515528;28;20059;-85
2023/05/01 07:57:37;;;;;;;6.03;4.65;;;;;;;;;;10513999;28;20020;-85
2023/05/01 08:02:39;;;;;;;4.10;2.53;;;;;;;;;;10496601;28;20438;-85
2023/05/01 08:07:40;;;;;;;5.75;3.40;;;;;;;;;;10495058;28;20029;-85
2023/05/01 08:12:41;;;;;;;3.13;2.28;;;;;;;;;;10494113;28;20056;-85
2023/05/01 08:17:42;;;;;;;4.05;2.35;;;;;;;;;;10497038;28;20040;-85
2023/05/01 08:22:43;;;;;;;2.97;2.10;;;;;;;;;;10496229;28;20442;-84
2023/05/01 08:27:45;;;;;;;3.10;2.15;;;;;;;;;;10496406;28;20029;-85
2023/05/01 08:32:48;;;;;;;3.40;1.95;;;;;;;;;;10495582;28;20056;-85
2023/05/01 08:37:49;;;;;;;5.22;2.50;;;;;;;;;;10495216;28;20031;-85
2023/05/01 08:42:50;;;;;;;2.47;1.85;;;;;;;;;;10512010;28;20024;-85
2023/05/01 08:47:54;;;;;;;3.45;2.15;;;;;;;;;;10511854;28;20032;-85
2023/05/01 08:52:57;;;;;;;2.47;1.88;;;;;;;;;;10497052;28;20025;-85
2023/05/01 08:57:58;;;;;;;2.70;1.98;;;;;;;;;;10498042;28;20078;-85
2023/05/01 09:03:03;;;;;;;2.22;1.70;;;;;;;;;;10494590;28;20127;-85
2023/05/01 09:08:04;;;;;;;2.28;1.80;;;;;;;;;;10494635;28;20029;-85
2023/05/01 09:13:08;;;;;;;2.08;1.65;;;;;;;;;;10511705;28;20055;-85
2023/05/01 09:18:11;;;;;;;3.55;1.92;;;;;;;;;;10492250;28;20025;-85
2023/05/01 09:23:12;;;;;;;4.25;2.40;;;;;;;;;;10503774;28;20039;-85
2023/05/01 09:28:14;;;;;;;3.10;2.17;;;;;;;;;;10529435;28;20035;-84
2023/05/01 09:33:15;;;;;;;5.25;3.30;;;;;;;;;;10495944;28;20025;-85
2023/05/01 09:38:17;;;;;;;4.10;2.65;;;;;;;;;;10495171;28;20097;-85
2023/05/01 09:43:25;;;;;;;4.10;2.90;;;;;;;;;;10510162;28;20029;-85
2023/05/01 09:48:27;;;;;;;3.33;2.00;;;;;;;;;;10494296;28;20436;-85
2023/05/01 09:53:38;;;;;;;3.45;2.97;;;;;;;;;;10504101;28;20025;-84
2023/05/01 09:58:39;;;;;;;5.97;3.38;;;;;;;;;;10509906;28;20032;-83
2023/05/01 10:03:40;;;;;;;4.35;2.70;;;;;;;;;;10528618;28;20017;-83
2023/05/01 10:08:48;;;;;;;4.28;3.03;;;;;;;;;;10509314;28;20063;-84
2023/05/01 10:14:09;;;;;;;4.00;2.33;;;;;;;;;;10509204;28;20024;-84
2023/05/01 10:19:11;;;;;;;2.78;2.00;;;;;;;;;;10527038;28;20051;-84
2023/05/01 10:24:15;;;;;;;2.70;1.88;;;;;;;;;;10508337;28;20017;-83
2023/05/01 10:29:16;;;;;;;3.03;1.90;;;;;;;;;;10483952;28;20037;-85
2023/05/01 10:34:19;;;;;;;2.88;2.08;;;;;;;;;;10481941;28;20029;-85
2023/05/01 10:39:33;;;;;;;3.78;2.10;;;;;;;;;;10490443;28;20031;-85
2023/05/01 10:44:40;;;;;;;2.75;1.92;;;;;;;;;;10490474;28;20017;-85
2023/05/01 10:50:00;;;;;;;3.35;1.90;;;;;;;;;;10490340;28;20050;-84
2023/05/01 10:55:20;;;;;;;2.30;1.80;;;;;;;;;;10510489;28;20115;-85
2023/05/01 11:00:21;;;;;;;3.50;1.90;;;;;;;;;;10493777;28;20034;-84
2023/05/01 11:05:42;;;;;;;2.40;2.00;;;;;;;;;;10494395;28;20127;-84
2023/05/01 11:10:43;;;;;;;6.65;1.67;;;;;;;;;;10492366;28;20462;-84
2023/05/01 11:15:44;;;;;;;3.15;2.42;;;;;;;;;;10540444;28;20020;-82
2023/05/01 11:20:46;;;;;;;2.53;2.03;;;;;;;;;;10531828;28;20044;-85
2023/05/01 11:25:49;;;;;;;4.13;2.63;;;;;;;;;;10492257;28;20087;-85
2023/05/01 11:30:50;;;;;;;2.47;1.77;;;;;;;;;;10489833;28;20106;-85
2023/05/01 11:35:59;;;;;;;3.08;1.75;;;;;;;;;;10486922;28;20025;-85
2023/05/01 11:41:00;;;;;;;2.72;1.58;;;;;;;;;;10486099;28;20037;-85
2023/05/01 11:46:02;;;;;;;2.83;1.85;;;;;;;;;;10485977;28;20020;-85
2023/05/01 11:51:11;;;;;;;2.58;2.08;;;;;;;;;;10485885;28;20025;-84
2023/05/01 11:56:22;;;;;;;2.03;1.40;;;;;;;;;;10486053;28;20028;-85
2023/05/01 12:01:36;;;;;;;2.60;1.95;;;;;;;;;;10547916;22;20050;-80
2023/05/01 12:06:45;;;;;;;3.00;2.05;;;;;;;;;;10598934;28;20088;-80
2023/05/01 12:11:46;;;;;;;3.28;1.75;;;;;;;;;;10595153;28;20028;-81
2023/05/01 12:16:48;;;;;;;2.17;1.80;;;;;;;;;;10594708;28;20107;-81
2023/05/01 12:22:04;;;;;;;1.58;1.30;;;;;;;;;;10592844;28;20020;-81
2023/05/01 12:27:07;;;;;;;2.05;1.40;;;;;;;;;;10594147;28;20110;-81
2023/05/01 12:32:08;;;;;;;2.63;1.83;;;;;;;;;;10596217;28;20062;-80
2023/05/01 12:37:10;;;;;;;2.38;1.60;;;;;;;;;;10594157;28;20027;-81
2023/05/01 12:42:13;;;;;;;3.10;2.20;;;;;;;;;;10589294;28;20015;-79
2023/05/01 12:47:14;;;;;;;3.10;1.90;;;;;;;;;;10589162;28;20027;-79
2023/05/01 12:52:15;;;;;;;2.30;1.55;;;;;;;;;;10589851;28;20019;-81
2023/05/01 12:57:16;;;;;;;2.70;1.73;;;;;;;;;;10593347;28;20087;-82
2023/05/01 13:02:17;;;;;;;2.25;1.85;;;;;;;;;;10593032;28;20051;-81
2023/05/01 13:07:18;;;;;;;4.18;1.50;;;;;;;;;;10594842;28;20114;-81
2023/05/01 13:12:20;;;;;;;4.78;1.60;;;;;;;;;;10594967;28;20477;-81
2023/05/01 13:17:25;;;;;;;3.88;3.13;;;;;;;;;;10591385;28;20023;-81
2023/05/01 13:22:37;;;;;;;3.88;1.90;;;;;;;;;;10592396;28;20083;-81
2023/05/01 13:27:38;;;;;;;2.25;1.58;;;;;;;;;;10590260;28;20031;-81
2023/05/01 13:32:41;;;;;;;2.58;1.50;;;;;;;;;;10589217;28;20095;-82
2023/05/01 13:37:42;;;;;;;2.67;1.70;;;;;;;;;;10589755;28;20032;-82
2023/05/01 13:42:43;;;;;;;2.47;1.88;;;;;;;;;;10590204;28;20114;-82
2023/05/01 13:47:44;;;;;;;3.50;1.88;;;;;;;;;;10594956;28;20086;-80
2023/05/01 13:52:45;;;;;;;2.88;1.83;;;;;;;;;;10596410;28;20067;-81
2023/05/01 13:57:46;;;;;;;2.92;1.88;;;;;;;;;;10597776;28;20020;-80
2023/05/01 14:02:48;;;;;;;14.50;11.70;;;;;;;;;;10601380;28;20036;-81
2023/05/01 14:07:53;;;;;;;2.75;1.30;;;;;;;;;;10609213;28;20064;-80
2023/05/01 14:12:56;;;;;;;1.95;1.30;;;;;;;;;;10598809;28;20469;-81
2023/05/01 14:17:59;;;;;;;2.92;1.30;;;;;;;;;;10597827;28;20050;-83
2023/05/01 14:23:00;;;;;;;2.53;1.83;;;;;;;;;;10603340;28;20020;-80
2023/05/01 14:28:04;;;;;;;2.17;1.70;;;;;;;;;;10597115;28;20055;-81
2023/05/01 14:33:07;;;;;;;2.72;1.60;;;;;;;;;;10597849;28;20028;-80
2023/05/01 14:38:10;;;;;;;3.60;3.22;;;;;;;;;;10597026;28;20087;-81
2023/05/01 14:43:18;;;;;;;2.15;1.60;;;;;;;;;;10600620;28;20028;-81
2023/05/01 14:48:23;;;;;;;2.50;1.90;;;;;;;;;;10599527;28;20023;-80
2023/05/01 14:53:24;;;;;;;3.40;2.42;;;;;;;;;;10595621;28;20034;-80
2023/05/01 14:58:25;;;;;;;3.47;2.20;;;;;;;;;;10597404;28;20027;-80
2023/05/01 15:03:26;;;;;;;2.83;1.80;;;;;;;;;;10594793;28;20349;-80
2023/05/01 15:08:29;;;;;;;1.70;1.40;;;;;;;;;;10594776;28;20118;-80
2023/05/01 15:13:33;;;;;;;3.67;1.10;;;;;;;;;;10594817;28;20024;-82
2023/05/01 15:18:35;;;;;;;0.82;0.80;;;;;;;;;;10594259;28;20026;-80
2023/05/01 15:23:36;;;;;;;1.45;0.80;;;;;;;;;;10593803;28;20035;-80
2023/05/01 15:28:37;;;;;;;1.27;0.95;;;;;;;;;;10596278;28;20030;-81
2023/05/01 15:33:38;;;;;;;4.85;2.70;;;;;;;;;;10595681;28;20027;-82
2023/05/01 15:38:39;;;;;;;3.78;2.50;;;;;;;;;;10596644;28;20030;-82
2023/05/01 15:43:40;;;;;;;3.70;2.10;;;;;;;;;;10594518;28;20023;-82
2023/05/01 15:48:41;;;;;;;3.65;2.17;;;;;;;;;;10592876;28;20122;-82
2023/05/01 15:53:42;;;;;;;2.60;1.90;;;;;;;;;;10592662;28;20096;-82
2023/05/01 15:58:43;;;;;;;3.20;2.00;;;;;;;;;;10594097;27;20518;-80
2023/05/01 16:03:45;;;;;;;2.78;1.83;;;;;;;;;;10592068;28;20038;-79
2023/05/01 16:08:46;;;;;;;5.25;2.20;;;;;;;;;;10591582;28;20456;-80
2023/05/01 16:13:49;;;;;;;3.72;2.17;;;;;;;;;;10592318;27;20075;-80
2023/05/01 16:18:54;;;;;;;4.28;2.20;;;;;;;;;;10591350;28;20039;-80
2023/05/01 16:23:56;;;;;;;2.60;2.10;;;;;;;;;;10594048;28;20027;-80
2023/05/01 16:28:58;;;;;;;2.17;1.73;;;;;;;;;;10593631;28;20020;-81
2023/05/01 16:33:59;;;;;;;3.97;2.10;;;;;;;;;;10591326;28;20038;-79
2023/05/01 16:39:00;;;;;;;2.42;1.80;;;;;;;;;;10592869;28;20061;-80
2023/05/01 16:44:01;;;;;;;2.42;1.83;;;;;;;;;;10593553;28;20457;-78
2023/05/01 16:49:03;;;;;;;2.80;2.20;;;;;;;;;;10593603;28;20091;-80
2023/05/01 16:54:05;;;;;;;3.17;1.65;;;;;;;;;;10591751;28;20099;-80
2023/05/01 16:59:06;;;;;;;2.05;1.52;;;;;;;;;;10593209;28;20404;-81
2023/05/01 17:04:07;;;;;;;2.17;1.80;;;;;;;;;;10590705;28;20122;-80
2023/05/01 17:09:09;;;;;;;2.20;1.60;;;;;;;;;;10588839;28;20118;-81
2023/05/01 17:14:10;;;;;;;2.20;1.70;;;;;;;;;;10589069;28;20020;-80
2023/05/01 17:19:12;;;;;;;1.80;1.58;;;;;;;;;;10589493;28;20481;-81
2023/05/01 17:24:13;;;;;;;3.70;2.05;;;;;;;;;;10588267;28;20028;-81
2023/05/01 17:29:14;;;;;;;2.95;2.30;;;;;;;;;;10590874;28;20079;-80
2023/05/01 17:34:15;;;;;;;3.10;2.42;;;;;;;;;;10588903;28;20115;-80
2023/05/01 17:39:20;;;;;;;3.67;3.00;;;;;;;;;;10589424;28;20460;-81
2023/05/01 17:44:21;;;;;;;3.08;2.75;;;;;;;;;;10592031;28;20020;-81
2023/05/01 17:49:22;;;;;;;4.75;3.15;;;;;;;;;;10590857;28;20070;-80
2023/05/01 17:54:23;;;;;;;3.60;3.22;;;;;;;;;;10595654;28;20023;-80
2023/05/01 17:59:25;;;;;;;3.35;2.45;;;;;;;;;;10589206;28;20032;-81
2023/05/01 18:04:26;;;;;;;4.93;3.97;;;;;;;;;;10492389;22;20052;-80
2023/05/01 18:09:27;;;;;;;5.43;4.75;;;;;;;;;;10419264;28;20033;-79
2023/05/01 18:14:28;;;;;;;7.05;6.25;;;;;;;;;;10434246;28;20029;-80
2023/05/01 18:19:29;;;;;;;6.95;6.25;;;;;;;;;;10418057;28;20026;-80
2023/05/01 18:24:30;;;;;;;6.18;4.97;;;;;;;;;;10418355;28;20152;-79
2023/05/01 18:29:31;;;;;;;7.15;5.70;;;;;;;;;;10419188;28;20405;-80
2023/05/01 18:34:32;;;;;;;5.93;3.08;;;;;;;;;;10418046;28;20022;-80
2023/05/01 18:39:33;;;;;;;7.65;6.85;;;;;;;;;;10419086;28;20458;-79
2023/05/01 18:44:34;;;;;;;7.57;6.68;;;;;;;;;;10416347;28;20112;-80
2023/05/01 18:49:35;;;;;;;5.50;4.72;;;;;;;;;;10416267;28;20546;-80
2023/05/01 18:54:36;;;;;;;3.92;3.13;;;;;;;;;;10417054;28;20108;-79
2023/05/01 18:59:37;;;;;;;6.60;5.40;;;;;;;;;;10423365;28;20056;-79
2023/05/01 19:04:38;;;;;;;6.63;5.28;;;;;;;;;;10423484;28;20033;-80
2023/05/01 19:09:39;;;;;;;4.97;4.47;;;;;;;;;;10424851;28;20128;-80
2023/05/01 19:14:40;;;;;;;6.78;5.80;;;;;;;;;;10425824;28;20024;-80
